createdAt,value
2023-11-07T00:00:08.641Z,25.66
2023-11-07T00:02:36.942Z,25.64
2023-11-07T00:05:05.130Z,25.63
2023-11-07T00:07:32.637Z,25.59
2023-11-07T00:10:00.377Z,25.59
2023-11-07T00:12:27.870Z,25.57
2023-11-07T00:14:55.606Z,25.55
2023-11-07T00:17:23.400Z,25.54
2023-11-07T00:19:50.877Z,25.51
2023-11-07T00:22:18.354Z,25.50
2023-11-07T00:24:46.519Z,25.49
2023-11-07T00:27:14.504Z,25.48
2023-11-07T00:29:41.994Z,25.46
2023-11-07T00:32:09.768Z,25.44
2023-11-07T00:34:37.246Z,25.42
2023-11-07T00:37:04.808Z,25.42
2023-11-07T00:39:32.514Z,25.39
2023-11-07T00:41:59.976Z,25.38
2023-11-07T00:44:27.502Z,25.36
2023-11-07T00:46:55.370Z,25.34
2023-11-07T00:49:22.909Z,25.33
2023-11-07T00:51:50.419Z,25.32
2023-11-07T00:54:18.234Z,25.31
2023-11-07T00:56:45.798Z,25.29
2023-11-07T00:59:13.556Z,25.27
2023-11-07T01:01:41.931Z,25.27
2023-11-07T01:04:09.624Z,25.25
2023-11-07T01:06:37.280Z,25.24
2023-11-07T01:09:05.533Z,25.23
2023-11-07T01:11:33.251Z,25.22
2023-11-07T01:14:00.761Z,25.20
2023-11-07T01:16:28.522Z,25.19
2023-11-07T01:18:56.714Z,25.18
2023-11-07T01:21:24.896Z,25.17
2023-11-07T01:23:52.693Z,25.16
2023-11-07T01:26:20.753Z,25.14
2023-11-07T01:28:48.202Z,25.13
2023-11-07T01:31:15.980Z,25.12
2023-11-07T01:33:43.587Z,25.11
2023-11-07T01:36:11.811Z,25.10
2023-11-07T01:38:39.595Z,25.09
2023-11-07T01:41:07.142Z,25.08
2023-11-07T01:43:34.606Z,25.07
2023-11-07T01:46:04.158Z,25.04
2023-11-07T01:48:31.960Z,25.04
2023-11-07T01:50:59.795Z,25.04
2023-11-07T01:53:27.537Z,25.01
2023-11-07T01:55:55.240Z,25.00
2023-11-07T01:58:22.953Z,24.98
2023-11-07T02:00:54.856Z,24.97
2023-11-07T02:03:26.081Z,24.96
2023-11-07T02:05:53.749Z,24.95
2023-11-07T02:08:26.175Z,24.94
2023-11-07T02:10:53.917Z,24.92
2023-11-07T02:13:21.396Z,24.92
2023-11-07T02:15:48.903Z,24.90
2023-11-07T02:18:16.912Z,24.89
2023-11-07T02:20:46.599Z,24.88
2023-11-07T02:23:30.383Z,24.86
2023-11-07T02:25:58.225Z,24.89
2023-11-07T02:28:25.701Z,24.86
2023-11-07T02:30:53.913Z,24.85
2023-11-07T02:33:22.748Z,24.84
2023-11-07T02:35:50.349Z,24.83
2023-11-07T02:38:20.672Z,24.82
2023-11-07T02:40:50.324Z,24.82
2023-11-07T02:43:17.875Z,24.80
2023-11-07T02:45:45.444Z,24.79
2023-11-07T02:48:13.354Z,24.79
2023-11-07T02:50:41.515Z,24.77
2023-11-07T02:53:09.052Z,24.76
2023-11-07T02:55:36.861Z,24.74
2023-11-07T02:58:04.410Z,24.74
2023-11-07T03:00:33.590Z,24.72
2023-11-07T03:03:01.472Z,24.71
2023-11-07T03:05:29.043Z,24.71
2023-11-07T03:07:58.159Z,24.69
2023-11-07T03:10:27.005Z,24.67
2023-11-07T03:12:54.502Z,24.67
2023-11-07T03:15:21.955Z,24.66
2023-11-07T03:17:49.826Z,24.66
2023-11-07T03:20:17.947Z,24.63
2023-11-07T03:22:45.436Z,24.63
2023-11-07T03:25:13.168Z,24.63
2023-11-07T03:27:40.729Z,24.60
2023-11-07T03:30:08.948Z,24.60
2023-11-07T03:32:37.179Z,24.59
2023-11-07T03:35:05.813Z,24.57
2023-11-07T03:37:33.252Z,24.57
2023-11-07T03:40:01.255Z,24.56
2023-11-07T03:42:29.323Z,24.57
2023-11-07T03:44:56.766Z,24.55
2023-11-07T03:47:24.507Z,24.55
2023-11-07T03:49:53.020Z,24.54
2023-11-07T03:52:20.499Z,24.53
2023-11-07T03:54:49.158Z,24.52
2023-11-07T03:57:16.664Z,24.51
2023-11-07T03:59:47.032Z,24.50
2023-11-07T04:02:14.836Z,24.49
2023-11-07T04:04:42.601Z,24.49
2023-11-07T04:07:10.163Z,24.47
2023-11-07T04:09:38.146Z,24.45
2023-11-07T04:12:06.378Z,24.45
2023-11-07T04:14:34.556Z,24.43
2023-11-07T04:17:05.793Z,24.42
2023-11-07T04:19:34.805Z,24.42
2023-11-07T04:22:05.252Z,24.40
2023-11-07T04:24:33.064Z,24.40
2023-11-07T04:27:00.601Z,24.40
2023-11-07T04:29:28.110Z,24.39
2023-11-07T04:31:55.859Z,24.38
2023-11-07T04:34:23.344Z,24.38
2023-11-07T04:36:54.716Z,24.36
2023-11-07T04:39:22.482Z,24.35
2023-11-07T04:41:50.056Z,24.34
2023-11-07T04:44:17.542Z,24.32
2023-11-07T04:46:46.191Z,24.32
2023-11-07T04:49:15.245Z,24.32
2023-11-07T04:51:42.957Z,24.30
2023-11-07T04:54:10.756Z,24.30
2023-11-07T04:56:38.597Z,24.28
2023-11-07T04:59:06.143Z,24.27
2023-11-07T05:01:33.838Z,24.27
2023-11-07T05:04:01.668Z,24.27
2023-11-07T05:06:29.415Z,24.26
2023-11-07T05:08:57.237Z,24.26
2023-11-07T05:11:24.726Z,24.24
2023-11-07T05:13:52.170Z,24.25
2023-11-07T05:16:20.537Z,24.23
2023-11-07T05:18:49.117Z,24.22
2023-11-07T05:21:17.251Z,24.22
2023-11-07T05:23:45.037Z,24.21
2023-11-07T05:26:12.780Z,24.18
2023-11-07T05:28:40.238Z,24.17
2023-11-07T05:31:07.996Z,24.17
2023-11-07T05:33:38.439Z,24.16
2023-11-07T05:36:06.432Z,24.17
2023-11-07T05:38:35.280Z,24.16
2023-11-07T05:41:03.238Z,24.15
2023-11-07T05:43:30.736Z,24.15
2023-11-07T05:45:58.483Z,24.13
2023-11-07T05:48:26.294Z,24.13
2023-11-07T05:50:53.960Z,24.13
2023-11-07T05:53:21.711Z,24.13
2023-11-07T05:55:49.289Z,24.12
2023-11-07T05:58:16.768Z,24.11
2023-11-07T06:00:45.335Z,24.10
2023-11-07T06:03:15.064Z,24.09
2023-11-07T06:05:46.632Z,24.09
2023-11-07T06:08:14.784Z,24.10
2023-11-07T06:10:42.245Z,24.07
2023-11-07T06:13:09.826Z,24.06
2023-11-07T06:15:39.086Z,24.06
2023-11-07T06:18:07.778Z,24.06
2023-11-07T06:20:35.345Z,24.06
2023-11-07T06:23:03.159Z,24.04
2023-11-07T06:25:30.668Z,24.03
2023-11-07T06:27:59.001Z,24.02
2023-11-07T06:30:31.133Z,24.02
2023-11-07T06:32:59.792Z,24.02
2023-11-07T06:35:27.767Z,24.01
2023-11-07T06:37:55.351Z,24.02
2023-11-07T06:40:29.928Z,24.02
2023-11-07T06:43:01.804Z,24.02
2023-11-07T06:45:29.295Z,24.00
2023-11-07T06:48:01.116Z,24.00
2023-11-07T06:50:28.928Z,23.98
2023-11-07T06:52:56.516Z,23.98
2023-11-07T06:55:27.376Z,23.97
2023-11-07T06:57:56.678Z,23.96
2023-11-07T07:00:28.090Z,23.95
2023-11-07T07:02:57.554Z,23.95
2023-11-07T07:05:26.660Z,23.94
2023-11-07T07:07:55.696Z,23.95
2023-11-07T07:10:23.839Z,23.93
2023-11-07T07:12:52.313Z,23.93
2023-11-07T07:15:19.926Z,23.92
2023-11-07T07:17:48.426Z,23.91
2023-11-07T07:20:16.063Z,23.93
2023-11-07T07:22:44.521Z,23.93
2023-11-07T07:25:17.463Z,23.90
2023-11-07T07:27:49.170Z,23.91
2023-11-07T07:30:22.483Z,23.91
2023-11-07T07:32:52.917Z,23.90
2023-11-07T07:35:24.380Z,23.89
2023-11-07T07:37:53.199Z,23.90
2023-11-07T07:40:30.504Z,23.89
2023-11-07T07:43:10.520Z,23.89
2023-11-07T07:45:40.892Z,23.90
2023-11-07T07:48:08.760Z,23.89
2023-11-07T07:50:36.397Z,23.89
2023-11-07T07:53:07.723Z,23.88
2023-11-07T07:55:38.352Z,23.87
2023-11-07T07:58:08.009Z,23.87
2023-11-07T08:00:38.989Z,23.87
2023-11-07T08:03:11.307Z,23.86
2023-11-07T08:05:41.719Z,23.87
2023-11-07T08:08:10.809Z,23.86
2023-11-07T08:10:39.330Z,23.86
2023-11-07T08:13:08.670Z,23.85
2023-11-07T08:15:37.750Z,23.85
2023-11-07T08:18:08.439Z,23.85
2023-11-07T08:20:39.482Z,23.85
2023-11-07T08:23:07.253Z,23.84
2023-11-07T08:25:35.626Z,23.93
2023-11-07T08:28:09.239Z,23.85
2023-11-07T08:30:40.489Z,23.83
2023-11-07T08:33:09.038Z,23.82
2023-11-07T08:35:38.097Z,23.81
2023-11-07T08:38:05.787Z,23.79
2023-11-07T08:40:36.524Z,23.79
2023-11-07T08:43:04.777Z,23.78
2023-11-07T08:45:34.925Z,23.77
2023-11-07T08:48:04.488Z,23.76
2023-11-07T08:50:33.948Z,23.76
2023-11-07T08:53:06.556Z,23.77
2023-11-07T08:55:34.888Z,23.75
2023-11-07T08:58:04.694Z,23.75
2023-11-07T09:00:33.832Z,23.75
2023-11-07T09:03:01.800Z,23.75
2023-11-07T09:05:30.073Z,23.77
2023-11-07T09:07:57.821Z,23.74
2023-11-07T09:10:26.559Z,23.72
2023-11-07T09:12:54.028Z,23.73
2023-11-07T09:15:22.053Z,23.72
2023-11-07T09:17:50.295Z,23.71
2023-11-07T09:20:18.170Z,23.71
2023-11-07T09:22:45.745Z,23.70
2023-11-07T09:25:13.682Z,23.69
2023-11-07T09:27:41.342Z,23.69
2023-11-07T09:30:13.322Z,23.69
2023-11-07T09:32:43.429Z,23.66
2023-11-07T09:35:11.646Z,23.68
2023-11-07T09:37:42.402Z,23.68
2023-11-07T09:40:23.408Z,23.67
2023-11-07T09:42:53.282Z,23.67
2023-11-07T09:45:21.313Z,23.67
2023-11-07T09:47:50.406Z,23.67
2023-11-07T09:50:20.827Z,23.66
2023-11-07T09:52:49.742Z,23.68
2023-11-07T09:55:17.770Z,23.68
2023-11-07T09:58:01.499Z,23.70
2023-11-07T10:00:39.139Z,23.70
2023-11-07T10:03:07.736Z,23.70
2023-11-07T10:05:38.237Z,23.70
2023-11-07T10:08:06.123Z,23.70
2023-11-07T10:10:35.503Z,23.70
2023-11-07T10:13:12.907Z,23.70
2023-11-07T10:15:40.989Z,23.72
2023-11-07T10:18:13.161Z,23.67
2023-11-07T10:20:51.876Z,23.64
2023-11-07T10:23:19.793Z,23.63
2023-11-07T10:25:50.874Z,23.58
2023-11-07T10:28:21.284Z,23.57
2023-11-07T10:30:49.801Z,23.57
2023-11-07T10:33:29.182Z,23.56
2023-11-07T10:36:01.844Z,23.57
2023-11-07T10:38:32.116Z,23.58
2023-11-07T10:41:00.249Z,23.58
2023-11-07T10:43:56.160Z,23.58
2023-11-07T10:46:25.020Z,23.58
2023-11-07T10:48:53.332Z,23.58
2023-11-07T10:51:25.602Z,23.58
2023-11-07T10:53:53.385Z,23.59
2023-11-07T10:56:21.456Z,23.59
2023-11-07T10:59:00.132Z,23.59
2023-11-07T11:01:33.682Z,23.58
2023-11-07T11:04:01.910Z,23.56
2023-11-07T11:06:31.077Z,23.56
2023-11-07T11:08:58.852Z,23.57
2023-11-07T11:11:28.900Z,23.57
2023-11-07T11:13:56.964Z,23.58
2023-11-07T11:16:24.391Z,23.59
2023-11-07T11:18:58.279Z,23.58
2023-11-07T11:21:33.034Z,23.59
2023-11-07T11:24:19.359Z,23.59
2023-11-07T11:26:50.385Z,23.62
2023-11-07T11:29:27.847Z,23.60
2023-11-07T11:31:55.895Z,23.61
2023-11-07T11:34:27.019Z,23.61
2023-11-07T11:37:01.080Z,23.60
2023-11-07T11:39:31.844Z,23.60
2023-11-07T11:42:01.779Z,23.61
2023-11-07T11:44:30.630Z,23.61
2023-11-07T11:46:58.244Z,23.62
2023-11-07T11:49:26.055Z,23.62
2023-11-07T11:51:54.469Z,23.62
2023-11-07T11:54:28.126Z,23.62
2023-11-07T11:57:00.150Z,23.62
2023-11-07T11:59:31.440Z,23.62
2023-11-07T12:02:00.795Z,23.63
2023-11-07T12:04:30.160Z,23.63
2023-11-07T12:07:16.393Z,23.63
2023-11-07T12:09:46.091Z,23.65
2023-11-07T12:12:15.987Z,23.62
2023-11-07T12:15:01.378Z,23.63
2023-11-07T12:17:34.426Z,23.66
2023-11-07T12:20:12.959Z,23.64
2023-11-07T12:22:43.117Z,23.64
2023-11-07T12:25:15.430Z,23.63
2023-11-07T12:27:43.130Z,23.63
2023-11-07T12:30:15.817Z,23.63
2023-11-07T12:32:45.052Z,23.63
2023-11-07T12:35:19.457Z,23.64
2023-11-07T12:37:47.144Z,23.64
2023-11-07T12:40:15.001Z,23.64
2023-11-07T12:42:44.504Z,23.64
2023-11-07T12:45:12.027Z,23.64
2023-11-07T12:47:40.926Z,23.65
2023-11-07T12:50:10.968Z,23.64
2023-11-07T12:52:43.658Z,23.64
2023-11-07T12:55:18.733Z,23.65
2023-11-07T12:57:50.720Z,23.65
2023-11-07T13:00:19.453Z,23.64
2023-11-07T13:02:46.985Z,23.64
2023-11-07T13:05:17.660Z,23.65
2023-11-07T13:07:45.449Z,23.64
2023-11-07T13:10:16.868Z,23.64
2023-11-07T13:12:45.612Z,23.65
2023-11-07T13:15:14.837Z,23.65
2023-11-07T13:17:42.575Z,23.65
2023-11-07T13:20:12.259Z,23.65
2023-11-07T13:22:41.628Z,23.65
2023-11-07T13:25:10.675Z,23.66
2023-11-07T13:27:39.438Z,23.65
2023-11-07T13:30:10.196Z,23.64
2023-11-07T13:32:38.028Z,23.64
2023-11-07T13:35:05.973Z,23.64
2023-11-07T13:37:33.439Z,23.64
2023-11-07T13:40:02.177Z,23.63
2023-11-07T13:42:29.851Z,23.63
2023-11-07T13:44:57.420Z,23.63
2023-11-07T13:47:25.543Z,23.62
2023-11-07T13:49:52.991Z,23.62
2023-11-07T13:52:20.410Z,23.64
2023-11-07T13:54:48.082Z,23.61
2023-11-07T13:57:16.877Z,23.63
2023-11-07T13:59:44.412Z,23.63
2023-11-07T14:02:12.135Z,23.64
2023-11-07T14:04:40.035Z,23.62
2023-11-07T14:07:08.712Z,23.63
2023-11-07T14:09:37.743Z,23.65
2023-11-07T14:12:05.752Z,23.67
2023-11-07T14:14:33.835Z,23.77
2023-11-07T14:17:01.281Z,23.87
2023-11-07T14:19:29.402Z,23.99
2023-11-07T14:21:56.934Z,24.12
2023-11-07T14:24:24.389Z,24.22
2023-11-07T14:26:55.190Z,24.32
2023-11-07T14:29:38.469Z,24.46
2023-11-07T14:32:13.898Z,24.57
2023-11-07T14:34:42.643Z,24.72
2023-11-07T14:37:10.313Z,24.80
2023-11-07T14:39:38.080Z,24.91
2023-11-07T14:42:07.654Z,24.99
2023-11-07T14:44:35.846Z,25.08
2023-11-07T14:47:04.512Z,25.19
2023-11-07T14:49:32.232Z,25.27
2023-11-07T14:52:04.458Z,25.35
2023-11-07T14:54:32.262Z,25.44
2023-11-07T14:57:04.163Z,25.52
2023-11-07T14:59:34.146Z,25.59
2023-11-07T15:02:04.059Z,25.67
2023-11-07T15:04:33.012Z,25.76
2023-11-07T15:07:01.273Z,25.82
2023-11-07T15:09:28.873Z,25.88
2023-11-07T15:11:59.335Z,25.93
2023-11-07T15:14:27.200Z,25.96
2023-11-07T15:16:54.699Z,26.00
2023-11-07T15:19:22.276Z,26.01
2023-11-07T15:21:50.035Z,26.03
2023-11-07T15:24:19.013Z,26.04
2023-11-07T15:26:46.968Z,26.04
2023-11-07T15:29:14.670Z,26.04
2023-11-07T15:31:42.102Z,26.06
2023-11-07T15:34:10.319Z,26.03
2023-11-07T15:36:38.371Z,26.01
2023-11-07T15:39:13.496Z,26.00
2023-11-07T15:41:41.814Z,25.98
2023-11-07T15:44:09.586Z,25.95
2023-11-07T15:46:44.611Z,25.93
2023-11-07T15:49:12.542Z,25.90
2023-11-07T15:51:40.192Z,25.89
2023-11-07T15:54:07.867Z,25.84
2023-11-07T15:56:35.717Z,25.83
2023-11-07T15:59:05.475Z,25.81
2023-11-07T16:01:33.803Z,25.79
2023-11-07T16:04:01.652Z,25.79
2023-11-07T16:06:29.268Z,25.79
2023-11-07T16:08:57.101Z,25.77
2023-11-07T16:11:24.926Z,25.76
2023-11-07T16:13:52.686Z,25.74
2023-11-07T16:16:20.165Z,25.72
2023-11-07T16:18:53.470Z,25.69
2023-11-07T16:21:21.857Z,25.68
2023-11-07T16:23:49.969Z,25.66
2023-11-07T16:26:17.657Z,25.68
2023-11-07T16:28:45.159Z,25.65
2023-11-07T16:31:13.503Z,25.63
2023-11-07T16:33:41.188Z,25.62
2023-11-07T16:36:08.788Z,25.60
2023-11-07T16:38:36.805Z,25.58
2023-11-07T16:41:04.802Z,25.57
2023-11-07T16:43:32.323Z,25.55
2023-11-07T16:46:00.506Z,25.56
2023-11-07T16:48:27.994Z,25.52
2023-11-07T16:50:55.895Z,25.52
2023-11-07T16:53:23.682Z,25.52
2023-11-07T16:55:56.856Z,25.50
2023-11-07T16:58:25.922Z,25.47
2023-11-07T17:00:53.707Z,25.46
2023-11-07T17:03:21.476Z,25.45
2023-11-07T17:05:49.587Z,25.44
2023-11-07T17:08:17.836Z,25.42
2023-11-07T17:10:48.041Z,25.39
2023-11-07T17:13:15.701Z,25.38
2023-11-07T17:15:43.312Z,25.45
2023-11-07T17:18:11.606Z,25.37
2023-11-07T17:20:46.652Z,25.36
2023-11-07T17:23:16.010Z,25.34
2023-11-07T17:25:45.647Z,25.34
2023-11-07T17:28:13.829Z,25.31
2023-11-07T17:30:41.914Z,25.32
2023-11-07T17:33:10.185Z,25.29
2023-11-07T17:35:42.454Z,25.30
2023-11-07T17:38:11.219Z,25.31
2023-11-07T17:40:39.544Z,25.29
2023-11-07T17:43:08.708Z,25.28
2023-11-07T17:45:36.927Z,25.26
2023-11-07T17:48:05.465Z,25.24
2023-11-07T17:50:35.044Z,25.22
2023-11-07T17:53:04.108Z,25.20
2023-11-07T17:55:32.625Z,25.22
2023-11-07T17:58:01.572Z,25.19
2023-11-07T18:00:30.669Z,25.22
2023-11-07T18:03:00.388Z,25.21
2023-11-07T18:05:29.039Z,25.19
2023-11-07T18:07:57.539Z,25.16
2023-11-07T18:10:27.287Z,25.15
2023-11-07T18:12:55.713Z,25.15
2023-11-07T18:15:24.638Z,25.15
2023-11-07T18:17:53.299Z,25.13
2023-11-07T18:20:22.199Z,25.12
2023-11-07T18:22:52.775Z,25.12
2023-11-07T18:25:24.484Z,25.12
2023-11-07T18:27:52.550Z,25.11
2023-11-07T18:30:21.792Z,25.08
2023-11-07T18:32:52.734Z,25.08
2023-11-07T18:35:21.370Z,25.04
2023-11-07T18:37:52.051Z,25.03
2023-11-07T18:40:22.939Z,25.00
2023-11-07T18:42:51.015Z,24.99
2023-11-07T18:45:20.102Z,24.98
2023-11-07T18:47:49.463Z,24.98
2023-11-07T18:50:19.830Z,24.96
2023-11-07T18:52:51.228Z,24.95
2023-11-07T18:55:20.403Z,24.94
2023-11-07T18:57:49.897Z,24.94
2023-11-07T19:00:23.037Z,24.95
2023-11-07T19:02:53.037Z,24.92
2023-11-07T19:05:26.461Z,24.92
2023-11-07T19:07:58.003Z,24.93
2023-11-07T19:10:27.073Z,24.92
2023-11-07T19:12:56.384Z,24.91
2023-11-07T19:15:25.622Z,24.91
2023-11-07T19:17:58.897Z,24.90
2023-11-07T19:20:28.604Z,24.89
2023-11-07T19:22:58.207Z,24.88
2023-11-07T19:25:32.088Z,24.87
2023-11-07T19:28:02.458Z,24.88
2023-11-07T19:30:31.936Z,24.86
2023-11-07T19:33:01.483Z,24.87
2023-11-07T19:35:32.040Z,24.87
2023-11-07T19:38:06.995Z,24.87
2023-11-07T19:40:36.489Z,24.84
2023-11-07T19:43:05.655Z,24.84
2023-11-07T19:45:35.168Z,24.84
2023-11-07T19:48:04.183Z,24.84
2023-11-07T19:50:32.784Z,24.83
2023-11-07T19:53:09.148Z,24.85
2023-11-07T19:55:42.192Z,24.84
2023-11-07T19:58:11.952Z,24.84
2023-11-07T20:00:40.854Z,24.82
2023-11-07T20:03:10.615Z,24.92
2023-11-07T20:05:42.858Z,24.85
2023-11-07T20:08:15.006Z,24.82
2023-11-07T20:10:44.931Z,24.80
2023-11-07T20:13:14.248Z,24.80
2023-11-07T20:15:43.318Z,24.79
2023-11-07T20:18:13.354Z,24.81
2023-11-07T20:20:46.701Z,24.79
2023-11-07T20:23:16.605Z,24.79
2023-11-07T20:25:49.557Z,24.79
2023-11-07T20:28:20.512Z,24.78
2023-11-07T20:30:49.376Z,24.78
2023-11-07T20:33:18.380Z,24.78
2023-11-07T20:35:48.716Z,24.78
2023-11-07T20:38:20.225Z,24.77
2023-11-07T20:40:50.531Z,24.77
2023-11-07T20:43:19.612Z,24.86
2023-11-07T20:46:06.554Z,24.79
2023-11-07T20:48:39.668Z,24.75
2023-11-07T20:51:10.211Z,24.75
2023-11-07T20:53:39.902Z,24.73
2023-11-07T20:56:09.065Z,24.73
2023-11-07T20:58:37.797Z,24.72
2023-11-07T21:01:10.149Z,24.82
2023-11-07T21:03:38.729Z,24.74
2023-11-07T21:06:07.266Z,24.72
2023-11-07T21:08:36.259Z,24.71
2023-11-07T21:11:05.304Z,24.69
2023-11-07T21:13:33.166Z,24.70
2023-11-07T21:16:00.660Z,24.70
2023-11-07T21:18:30.396Z,24.69
2023-11-07T21:20:58.428Z,24.70
2023-11-07T21:23:25.872Z,24.80
2023-11-07T21:25:53.333Z,24.73
2023-11-07T21:28:21.046Z,24.70
2023-11-07T21:30:48.586Z,24.69
2023-11-07T21:33:16.634Z,24.68
2023-11-07T21:35:44.533Z,24.69
2023-11-07T21:38:12.367Z,24.69
2023-11-07T21:40:40.876Z,24.69
2023-11-07T21:43:09.581Z,24.69
2023-11-07T21:45:37.174Z,24.69
2023-11-07T21:48:08.533Z,24.68
2023-11-07T21:50:37.049Z,24.69
2023-11-07T21:53:04.520Z,24.69
2023-11-07T21:55:32.074Z,24.69
2023-11-07T21:58:00.691Z,24.69
2023-11-07T22:00:28.796Z,24.69
2023-11-07T22:02:56.785Z,24.68
2023-11-07T22:05:24.313Z,24.69
2023-11-07T22:07:52.830Z,24.69
2023-11-07T22:10:20.555Z,24.70
2023-11-07T22:12:48.443Z,24.68
2023-11-07T22:15:15.963Z,24.68
2023-11-07T22:17:44.067Z,24.67
2023-11-07T22:20:14.648Z,24.67
2023-11-07T22:22:43.884Z,24.68
2023-11-07T22:25:11.978Z,24.68
2023-11-07T22:27:39.846Z,24.68
2023-11-07T22:30:10.876Z,24.68
2023-11-07T22:32:42.088Z,24.67
2023-11-07T22:35:10.093Z,24.67
2023-11-07T22:37:38.774Z,24.67
2023-11-07T22:40:08.179Z,24.66
2023-11-07T22:42:38.260Z,24.67
2023-11-07T22:45:07.932Z,24.67
2023-11-07T22:47:35.386Z,24.66
2023-11-07T22:50:02.835Z,24.67
2023-11-07T22:52:30.575Z,24.66
2023-11-07T22:54:58.028Z,24.66
2023-11-07T22:57:25.915Z,24.70
2023-11-07T22:59:53.824Z,24.67
2023-11-07T23:02:21.589Z,24.74
2023-11-07T23:04:49.140Z,24.76
2023-11-07T23:07:17.820Z,24.77
2023-11-07T23:09:50.413Z,24.78
2023-11-07T23:12:18.382Z,24.78
2023-11-07T23:14:46.758Z,24.79
2023-11-07T23:17:14.820Z,24.73
2023-11-07T23:19:42.881Z,24.70
2023-11-07T23:22:13.487Z,24.69
2023-11-07T23:24:43.466Z,24.67
2023-11-07T23:27:15.261Z,24.67
2023-11-07T23:29:45.263Z,24.65
2023-11-07T23:32:13.474Z,24.64
2023-11-07T23:34:41.464Z,24.63
2023-11-07T23:37:09.561Z,24.64
2023-11-07T23:39:37.411Z,24.64
2023-11-07T23:42:05.471Z,24.63
2023-11-07T23:44:32.976Z,24.63
2023-11-07T23:47:00.711Z,24.63
2023-11-07T23:49:28.134Z,24.62
2023-11-07T23:51:55.763Z,24.62
2023-11-07T23:54:24.655Z,24.63
2023-11-07T23:56:52.103Z,24.62
2023-11-07T23:59:19.568Z,24.61
